Time;durP1;ratioP1;P1;durP2;ratioP2;P2;SDS_P1;SDS_P2;PMS_P1;PMS_P2;Temp;Humidity;BMP_temperature;BMP_pressure;BME280_temperature;BME280_humidity;BME280_pressure;Samples;Min_cycle;Max_cycle;Signal;HPM_P1;HPM_P2
2022/08/22 00:02:33;;;;;;;11.43;6.25;;;15.60;99.90;;;;;;5041373;28;20048;-76
2022/08/22 00:05:09;;;;;;;11.02;5.97;;;15.70;99.90;;;;;;5039077;28;20489;-77
2022/08/22 00:07:47;;;;;;;10.30;5.15;;;15.80;99.90;;;;;;5035232;28;20044;-76
2022/08/22 00:10:23;;;;;;;12.75;5.35;;;15.80;99.90;;;;;;5039933;28;20377;-77
2022/08/22 00:13:04;;;;;;;8.73;5.57;;;15.80;99.90;;;;;;5031340;28;20055;-77
2022/08/22 00:16:01;;;;;;;13.80;5.30;;;15.80;99.90;;;;;;5042589;28;20648;-76
2022/08/22 00:18:27;;;;;;;12.63;5.43;;;15.80;99.90;;;;;;5037550;28;20044;-76
2022/08/22 00:21:02;;;;;;;11.55;7.32;;;15.80;99.90;;;;;;5043812;28;20041;-77
2022/08/22 00:23:36;;;;;;;11.93;5.80;;;15.90;99.90;;;;;;5034740;28;20041;-78
2022/08/22 00:26:07;;;;;;;7.53;4.93;;;15.90;99.90;;;;;;5038901;28;20057;-77
2022/08/22 00:28:44;;;;;;;12.45;5.68;;;15.90;99.90;;;;;;5040233;28;20093;-78
2022/08/22 00:31:30;;;;;;;12.02;5.80;;;15.70;99.90;;;;;;5039184;28;20032;-77
2022/08/22 00:34:11;;;;;;;18.70;5.30;;;15.70;99.90;;;;;;5020704;28;20055;-78
2022/08/22 00:36:58;;;;;;;11.88;6.40;;;15.70;99.90;;;;;;5044817;28;20072;-78
2022/08/22 00:39:32;;;;;;;13.90;6.45;;;15.80;99.90;;;;;;5045859;28;20378;-77
2022/08/22 00:42:44;;;;;;;12.32;6.07;;;15.80;99.90;;;;;;5038932;28;20099;-77
2022/08/22 00:45:41;;;;;;;9.75;5.10;;;15.80;99.90;;;;;;5039732;28;20057;-77
2022/08/22 00:49:08;;;;;;;11.27;5.18;;;15.70;99.90;;;;;;5020271;28;20045;-76
2022/08/22 00:51:45;;;;;;;10.65;5.55;;;15.70;99.90;;;;;;4927965;29;20043;-76
2022/08/22 00:54:42;;;;;;;10.48;4.90;;;15.60;99.90;;;;;;5022320;28;20177;-76
2022/08/22 00:57:45;;;;;;;16.85;7.90;;;15.50;99.90;;;;;;5039743;28;20415;-77
2022/08/22 01:00:26;;;;;;;14.63;6.28;;;15.60;99.90;;;;;;5036749;28;20146;-78
2022/08/22 01:03:26;;;;;;;12.77;6.38;;;15.50;99.90;;;;;;5037754;28;20119;-78
2022/08/22 01:06:43;;;;;;;12.18;5.63;;;15.50;99.90;;;;;;5038144;28;20402;-77
2022/08/22 01:09:36;;;;;;;10.35;5.82;;;15.50;99.90;;;;;;5001354;28;20187;-78
2022/08/22 01:12:20;;;;;;;13.15;6.20;;;15.30;99.90;;;;;;5036891;28;20112;-79
2022/08/22 01:15:04;;;;;;;9.40;6.20;;;15.40;99.90;;;;;;5035811;28;20045;-76
2022/08/22 01:18:04;;;;;;;9.90;5.63;;;15.40;99.90;;;;;;5038589;28;20115;-77
2022/08/22 01:21:06;;;;;;;9.50;6.78;;;15.40;99.90;;;;;;5037452;28;20045;-76
2022/08/22 01:23:55;;;;;;;9.43;5.95;;;15.40;99.90;;;;;;5039060;28;20039;-78
2022/08/22 01:26:44;;;;;;;9.27;6.20;;;15.30;99.90;;;;;;5039751;28;20056;-77
2022/08/22 01:29:36;;;;;;;8.40;5.72;;;15.40;99.90;;;;;;5043077;28;20376;-77
2022/08/22 01:32:26;;;;;;;9.18;6.03;;;15.40;99.90;;;;;;5042574;28;20179;-77
2022/08/22 01:35:08;;;;;;;15.18;8.32;;;15.40;99.90;;;;;;5040373;28;20045;-77
2022/08/22 01:37:49;;;;;;;11.35;6.00;;;15.40;99.90;;;;;;5034405;28;20116;-77
2022/08/22 01:40:32;;;;;;;8.98;5.47;;;15.30;99.90;;;;;;5041359;28;20147;-77
2022/08/22 01:43:34;;;;;;;7.97;5.65;;;15.20;99.90;;;;;;5040620;28;20049;-76
2022/08/22 01:46:27;;;;;;;9.55;6.50;;;15.20;99.90;;;;;;5035548;28;20041;-77
2022/08/22 01:49:03;;;;;;;13.07;7.03;;;15.20;99.90;;;;;;5036412;28;20167;-77
2022/08/22 01:51:41;;;;;;;13.18;6.72;;;15.10;99.90;;;;;;5034607;28;20107;-76
2022/08/22 01:54:32;;;;;;;10.73;8.10;;;15.10;99.90;;;;;;5032967;28;20040;-77
2022/08/22 01:57:06;;;;;;;17.67;7.85;;;15.10;99.90;;;;;;5036653;28;20045;-76
2022/08/22 01:59:39;;;;;;;11.45;7.15;;;15.10;99.90;;;;;;5035875;28;20067;-77
2022/08/22 02:02:23;;;;;;;15.60;8.10;;;15.00;99.90;;;;;;5037288;28;20045;-77
2022/08/22 02:05:13;;;;;;;10.93;7.53;;;15.00;99.90;;;;;;5036590;28;20049;-77
2022/08/22 02:07:41;;;;;;;16.00;8.35;;;14.90;99.90;;;;;;5035972;28;20049;-77
2022/08/22 02:10:44;;;;;;;12.70;7.13;;;14.90;99.90;;;;;;5034435;28;20660;-77
2022/08/22 02:13:38;;;;;;;10.40;7.93;;;14.90;99.90;;;;;;5036177;28;20060;-77
2022/08/22 02:16:35;;;;;;;9.30;7.50;;;14.80;99.90;;;;;;5018120;28;20037;-76
2022/08/22 02:19:13;;;;;;;13.07;7.20;;;14.90;99.90;;;;;;5035607;28;20041;-77
2022/08/22 02:22:16;;;;;;;10.10;8.43;;;14.90;99.90;;;;;;5035676;28;20053;-77
2022/08/22 02:24:57;;;;;;;8.80;6.45;;;14.80;99.90;;;;;;5034105;28;20361;-76
2022/08/22 02:27:34;;;;;;;13.27;7.50;;;14.60;99.90;;;;;;5036690;28;20048;-78
2022/08/22 02:30:09;;;;;;;16.65;7.43;;;14.70;99.90;;;;;;5037820;28;20046;-76
2022/08/22 02:32:40;;;;;;;12.27;8.57;;;14.60;99.90;;;;;;5042477;28;20506;-76
2022/08/22 02:35:09;;;;;;;13.30;8.85;;;14.70;99.90;;;;;;5035905;28;20955;-77
2022/08/22 02:37:54;;;;;;;12.25;6.10;;;14.60;99.90;;;;;;5034443;28;20487;-76
2022/08/22 02:40:30;;;;;;;9.50;6.97;;;14.30;99.90;;;;;;5032949;28;20181;-78
2022/08/22 02:43:07;;;;;;;5.47;4.95;;;14.30;99.90;;;;;;5050252;28;20060;-77
2022/08/22 02:45:37;;;;;;;9.38;6.15;;;14.30;99.90;;;;;;5044561;28;20041;-78
2022/08/22 02:48:24;;;;;;;9.32;6.18;;;14.10;99.90;;;;;;5048700;28;20110;-76
2022/08/22 02:51:02;;;;;;;9.43;6.32;;;14.20;99.90;;;;;;5048356;28;20089;-77
2022/08/22 02:53:36;;;;;;;8.90;7.25;;;14.20;99.90;;;;;;5027957;28;20041;-77
2022/08/22 02:56:06;;;;;;;9.20;6.35;;;14.30;99.90;;;;;;5047817;28;20400;-77
2022/08/22 02:58:52;;;;;;;9.07;6.18;;;14.30;99.90;;;;;;5050060;28;20037;-76
2022/08/22 03:01:26;;;;;;;11.98;7.28;;;14.10;99.90;;;;;;5049377;28;20044;-77
2022/08/22 03:04:20;;;;;;;8.40;5.60;;;13.90;99.90;;;;;;5048253;28;20053;-77
2022/08/22 03:07:00;;;;;;;9.77;5.90;;;13.90;99.90;;;;;;5046859;28;20111;-78
2022/08/22 03:09:33;;;;;;;10.57;5.75;;;14.00;99.90;;;;;;5031832;28;20053;-77
2022/08/22 03:12:08;;;;;;;12.50;7.25;;;14.00;99.90;;;;;;5050478;28;20105;-77
2022/08/22 03:14:43;;;;;;;9.68;6.32;;;14.10;99.90;;;;;;5051357;28;20053;-77
2022/08/22 03:17:18;;;;;;;13.57;7.30;;;14.10;99.90;;;;;;5049570;28;20060;-77
2022/08/22 03:20:12;;;;;;;11.95;6.38;;;14.10;99.90;;;;;;5027607;28;20069;-77
2022/08/22 03:22:54;;;;;;;9.18;5.85;;;14.20;99.90;;;;;;5046600;28;20553;-77
2022/08/22 03:25:44;;;;;;;9.30;5.72;;;14.20;99.90;;;;;;5047617;28;20053;-77
2022/08/22 03:28:45;;;;;;;8.27;6.13;;;14.10;99.90;;;;;;5049271;28;20120;-76
2022/08/22 03:31:17;;;;;;;8.85;6.38;;;13.90;99.90;;;;;;5046527;28;20407;-77
2022/08/22 03:33:44;;;;;;;9.85;5.05;;;13.90;99.90;;;;;;5029447;28;20072;-76
2022/08/22 03:36:13;;;;;;;7.00;5.57;;;13.80;99.90;;;;;;5048338;28;20036;-77
2022/08/22 03:39:04;;;;;;;9.65;6.25;;;13.90;99.90;;;;;;5028496;28;20044;-77
2022/08/22 03:41:43;;;;;;;6.55;5.53;;;13.90;99.90;;;;;;5047057;28;20041;-76
2022/08/22 03:44:30;;;;;;;6.53;4.72;;;13.90;99.90;;;;;;5040334;28;20064;-77
2022/08/22 03:47:27;;;;;;;6.70;4.97;;;13.90;99.90;;;;;;5047032;28;20052;-76
2022/08/22 03:50:26;;;;;;;5.53;4.72;;;13.90;99.90;;;;;;5043041;28;20045;-77
2022/08/22 03:53:10;;;;;;;6.05;4.70;;;13.70;99.90;;;;;;5040210;28;20033;-78
2022/08/22 03:55:51;;;;;;;6.35;4.70;;;13.60;99.90;;;;;;5042101;28;20400;-76
2022/08/22 03:58:29;;;;;;;16.23;5.78;;;13.70;99.90;;;;;;5039672;28;20045;-78
2022/08/22 04:01:03;;;;;;;8.38;3.92;;;13.60;99.90;;;;;;5035151;28;20142;-77
2022/08/22 04:03:29;;;;;;;5.72;4.45;;;13.60;99.90;;;;;;5036242;28;20041;-77
2022/08/22 04:05:58;;;;;;;7.25;4.43;;;13.50;99.90;;;;;;5038230;28;20048;-76
2022/08/22 04:08:32;;;;;;;5.55;3.20;;;13.30;99.90;;;;;;5037756;28;20052;-77
2022/08/22 04:11:06;;;;;;;3.72;3.33;;;13.10;99.90;;;;;;5039341;28;20174;-78
2022/08/22 04:13:56;;;;;;;8.38;4.22;;;13.10;99.90;;;;;;5041992;28;20472;-76
2022/08/22 04:16:25;;;;;;;;;;;13.20;99.90;;;;;;5035799;28;20041;-77
2022/08/22 04:19:26;;;;;;;6.00;4.80;;;13.30;99.90;;;;;;5038924;28;19963;-77
2022/08/22 04:22:06;;;;;;;5.50;4.47;;;13.30;99.90;;;;;;4988102;28;20404;-76
2022/08/22 04:24:58;;;;;;;6.63;4.60;;;13.30;99.90;;;;;;5037430;28;20052;-76
2022/08/22 04:27:36;;;;;;;4.35;3.95;;;13.20;99.90;;;;;;5043361;28;20452;-77
2022/08/22 04:30:14;;;;;;;6.85;4.00;;;13.10;99.90;;;;;;5034488;28;20045;-76
2022/08/22 04:32:44;;;;;;;6.53;4.78;;;13.00;99.90;;;;;;5038093;28;20103;-77
2022/08/22 04:35:30;;;;;;;;;;;12.80;99.90;;;;;;5040303;28;20178;-77
2022/08/22 04:38:01;;;;;;;7.22;4.38;;;13.00;99.90;;;;;;5036636;28;20011;-77
2022/08/22 04:40:53;;;;;;;4.88;4.00;;;13.00;99.90;;;;;;5038391;28;20139;-78
2022/08/22 04:43:25;;;;;;;7.38;4.25;;;12.90;99.90;;;;;;5036287;28;20472;-77
2022/08/22 04:45:59;;;;;;;6.22;4.95;;;13.10;99.90;;;;;;5039492;28;20496;-78
2022/08/22 04:48:33;;;;;;;6.20;3.97;;;13.20;99.90;;;;;;5035953;28;20032;-77
2022/08/22 04:51:09;;;;;;;6.07;4.55;;;13.20;99.90;;;;;;5040009;28;20116;-77
2022/08/22 04:53:47;;;;;;;6.85;3.80;;;13.10;99.90;;;;;;5039993;28;20048;-76
2022/08/22 04:56:24;;;;;;;7.88;4.70;;;13.20;99.90;;;;;;5045084;28;20041;-75
2022/08/22 04:59:02;;;;;;;4.72;3.65;;;13.30;99.90;;;;;;5040279;28;20068;-74
2022/08/22 05:01:53;;;;;;;7.65;3.65;;;13.20;99.90;;;;;;5043610;28;20036;-76
2022/08/22 05:04:26;;;;;;;5.53;3.72;;;13.10;99.90;;;;;;5036659;28;20041;-75
2022/08/22 05:06:59;;;;;;;4.35;3.50;;;13.00;99.90;;;;;;5037584;28;20410;-74
2022/08/22 05:09:30;;;;;;;7.88;4.45;;;13.00;99.90;;;;;;5036013;28;21004;-75
2022/08/22 05:12:02;;;;;;;5.43;3.70;;;13.00;99.90;;;;;;5039192;28;20045;-76
2022/08/22 05:14:50;;;;;;;5.28;3.05;;;12.90;99.90;;;;;;5036665;28;20091;-76
2022/08/22 05:17:21;;;;;;;3.33;2.78;;;12.90;99.90;;;;;;5034923;28;20483;-76
2022/08/22 05:19:50;;;;;;;6.93;4.18;;;13.00;99.90;;;;;;5037560;28;20049;-76
2022/08/22 05:22:22;;;;;;;5.28;3.70;;;13.20;99.90;;;;;;5034723;28;20032;-76
2022/08/22 05:24:53;;;;;;;5.97;3.78;;;13.30;99.90;;;;;;5035031;28;20067;-75
2022/08/22 05:27:24;;;;;;;23.00;3.42;;;13.20;99.90;;;;;;5034960;28;20123;-76
2022/08/22 05:29:55;;;;;;;5.32;3.20;;;13.10;99.90;;;;;;5042430;28;20040;-76
2022/08/22 05:32:28;;;;;;;4.50;3.72;;;13.10;99.90;;;;;;5043029;28;20045;-76
2022/08/22 05:35:02;;;;;;;4.97;4.43;;;13.30;99.90;;;;;;5026916;28;20184;-76
2022/08/22 05:37:53;;;;;;;4.32;3.92;;;13.30;99.90;;;;;;5043756;28;20059;-76
2022/08/22 05:40:25;;;;;;;4.43;4.05;;;13.50;99.90;;;;;;5046395;28;20106;-76
2022/08/22 05:42:53;;;;;;;5.93;4.20;;;13.50;99.90;;;;;;5043960;28;20059;-74
2022/08/22 05:45:20;;;;;;;4.38;3.97;;;13.60;99.90;;;;;;5046579;28;20049;-74
2022/08/22 05:47:57;;;;;;;4.65;4.28;;;13.60;99.90;;;;;;5041856;28;20329;-74
2022/08/22 05:50:32;;;;;;;4.22;3.90;;;13.80;99.90;;;;;;5042954;28;20047;-75
2022/08/22 05:53:07;;;;;;;4.13;3.30;;;13.80;99.90;;;;;;5018927;28;20041;-75
2022/08/22 05:55:55;;;;;;;7.10;4.60;;;13.90;99.90;;;;;;5031460;28;20102;-75
2022/08/22 05:58:41;;;;;;;9.57;4.65;;;14.10;99.90;;;;;;5036488;28;20515;-75
2022/08/22 06:01:07;;;;;;;9.43;5.60;;;14.20;99.90;;;;;;5046659;28;20044;-76
2022/08/22 06:03:52;;;;;;;7.40;5.15;;;14.20;99.90;;;;;;5045179;28;20044;-76
2022/08/22 06:06:19;;;;;;;9.88;5.07;;;14.40;99.90;;;;;;5011798;28;20400;-76
2022/08/22 06:09:17;;;;;;;8.93;5.28;;;14.50;99.90;;;;;;5041155;28;20128;-76
2022/08/22 06:11:55;;;;;;;7.82;5.45;;;14.60;99.90;;;;;;5035081;28;20158;-75
2022/08/22 06:14:44;;;;;;;16.65;6.25;;;14.70;99.90;;;;;;5042139;28;20076;-75
2022/08/22 06:17:19;;;;;;;9.50;5.65;;;14.70;99.90;;;;;;5020445;28;20265;-76
2022/08/22 06:19:48;;;;;;;7.15;4.75;;;14.90;99.90;;;;;;5043071;28;20143;-77
2022/08/22 06:22:20;;;;;;;11.80;5.80;;;14.90;99.90;;;;;;5044801;28;20389;-78
2022/08/22 06:24:48;;;;;;;7.28;4.97;;;15.00;99.90;;;;;;5040685;28;20132;-78
2022/08/22 06:27:17;;;;;;;9.02;5.63;;;15.10;99.90;;;;;;5045277;28;20515;-79
2022/08/22 06:29:48;;;;;;;15.43;6.70;;;15.20;99.90;;;;;;5040646;28;20403;-78
2022/08/22 06:32:37;;;;;;;11.52;5.88;;;15.20;99.90;;;;;;5030047;28;20049;-78
2022/08/22 06:35:14;;;;;;;15.60;6.18;;;15.40;99.90;;;;;;5026226;28;20057;-77
2022/08/22 06:37:42;;;;;;;8.98;5.63;;;15.30;99.90;;;;;;5045128;28;20132;-79
2022/08/22 06:40:11;;;;;;;13.20;6.03;;;15.40;99.90;;;;;;5044168;28;20052;-76
2022/08/22 06:42:41;;;;;;;11.25;6.40;;;15.60;99.90;;;;;;5044921;28;20514;-76
2022/08/22 06:45:27;;;;;;;15.32;6.20;;;15.60;99.90;;;;;;5041699;28;20045;-76
2022/08/22 06:48:14;;;;;;;12.60;6.43;;;15.80;99.90;;;;;;5040965;28;20049;-76
2022/08/22 06:50:43;;;;;;;12.73;6.45;;;15.90;99.90;;;;;;5045130;28;20068;-76
2022/08/22 06:53:23;;;;;;;6.60;5.85;;;15.80;99.90;;;;;;5044431;28;20660;-76
2022/08/22 06:55:53;;;;;;;11.70;5.65;;;15.90;99.90;;;;;;5045863;28;20057;-76
2022/08/22 06:58:28;;;;;;;12.20;6.75;;;16.10;99.90;;;;;;5043266;28;20044;-76
2022/08/22 07:00:57;;;;;;;13.25;7.30;;;15.90;99.90;;;;;;5036670;28;20744;-76
2022/08/22 07:03:32;;;;;;;14.48;7.40;;;16.00;99.90;;;;;;5040115;28;20041;-76
2022/08/22 07:05:58;;;;;;;12.98;6.40;;;16.00;99.90;;;;;;5042060;28;20514;-77
2022/08/22 07:08:28;;;;;;;11.63;5.88;;;16.20;99.90;;;;;;5038369;28;20170;-73
2022/08/22 07:11:12;;;;;;;9.57;7.50;;;16.20;99.90;;;;;;5026117;28;20515;-74
2022/08/22 07:13:41;;;;;;;17.48;7.40;;;16.30;99.90;;;;;;5026038;28;20045;-74
2022/08/22 07:16:08;;;;;;;15.88;7.20;;;16.40;99.90;;;;;;5039457;28;20077;-76
2022/08/22 07:18:44;;;;;;;15.70;7.57;;;16.50;99.90;;;;;;5046476;28;20098;-75
2022/08/22 07:21:10;;;;;;;13.88;7.50;;;16.60;99.90;;;;;;5043654;28;20029;-74
2022/08/22 07:23:40;;;;;;;16.58;8.60;;;16.60;99.90;;;;;;5043915;28;20064;-75
2022/08/22 07:26:31;;;;;;;12.73;7.53;;;16.70;99.90;;;;;;5043406;28;20427;-74
2022/08/22 07:29:07;;;;;;;13.50;6.53;;;16.90;99.90;;;;;;5049230;28;20044;-75
2022/08/22 07:31:42;;;;;;;19.58;8.95;;;17.00;99.90;;;;;;5023587;28;20496;-77
2022/08/22 07:34:21;;;;;;;13.93;7.50;;;17.10;99.90;;;;;;5044426;28;20519;-77
2022/08/22 07:37:21;;;;;;;10.50;7.47;;;17.20;99.90;;;;;;5042494;28;20060;-78
2022/08/22 07:39:56;;;;;;;13.65;6.07;;;17.20;99.90;;;;;;5047796;28;20523;-78
2022/08/22 07:42:43;;;;;;;14.00;7.40;;;17.20;99.90;;;;;;5047583;28;20059;-77
2022/08/22 07:45:19;;;;;;;17.27;8.38;;;17.40;99.90;;;;;;5047828;28;20089;-78
2022/08/22 07:47:45;;;;;;;10.80;6.93;;;17.40;99.90;;;;;;5032272;28;20033;-76
2022/08/22 07:50:15;;;;;;;11.48;8.02;;;17.30;99.90;;;;;;5047600;28;20549;-78
2022/08/22 07:52:44;;;;;;;17.52;7.78;;;17.30;99.90;;;;;;5044317;28;20041;-77
2022/08/22 07:55:19;;;;;;;12.30;7.45;;;17.40;99.90;;;;;;5047850;28;20068;-78
2022/08/22 07:57:55;;;;;;;18.38;8.52;;;17.50;99.90;;;;;;5046486;28;20033;-78
2022/08/22 08:00:22;;;;;;;17.05;9.07;;;17.70;99.90;;;;;;5044926;28;20042;-79
2022/08/22 08:02:55;;;;;;;13.07;9.05;;;17.70;99.90;;;;;;5047652;28;20129;-77
2022/08/22 08:05:23;;;;;;;10.50;6.78;;;17.90;99.90;;;;;;5046247;28;20080;-76
2022/08/22 08:07:52;;;;;;;15.82;7.68;;;18.20;99.90;;;;;;5047754;28;20391;-77
2022/08/22 08:10:22;;;;;;;13.18;7.55;;;18.20;99.90;;;;;;5048278;28;20052;-77
2022/08/22 08:12:53;;;;;;;13.98;6.82;;;18.20;99.90;;;;;;5025443;28;20045;-77
2022/08/22 08:15:20;;;;;;;;;;;18.20;99.90;;;;;;5047869;28;20052;-77
2022/08/22 08:17:53;;;;;;;19.17;7.78;;;18.30;99.90;;;;;;5028824;28;21111;-78
2022/08/22 08:20:22;;;;;;;23.50;7.75;;;18.70;99.90;;;;;;5044090;28;20076;-77
2022/08/22 08:22:49;;;;;;;20.53;6.40;;;18.90;99.90;;;;;;5047615;28;20442;-78
2022/08/22 08:25:22;;;;;;;14.00;4.40;;;18.90;99.90;;;;;;5029638;28;20045;-77
2022/08/22 08:30:46;;;;;;;11.60;3.88;;;19.00;99.90;;;;;;5040648;28;20724;-80
2022/08/22 08:33:17;;;;;;;19.27;4.53;;;19.20;99.90;;;;;;5031543;28;20042;-76
2022/08/22 08:36:05;;;;;;;9.38;3.45;;;19.50;99.90;;;;;;5044516;28;20093;-80
2022/08/22 08:39:11;;;;;;;17.52;4.93;;;19.50;99.90;;;;;;5013643;28;20411;-82
2022/08/22 08:41:52;;;;;;;7.93;2.55;;;19.50;99.90;;;;;;5034664;28;20574;-77
2022/08/22 08:44:21;;;;;;;4.82;1.92;;;19.60;99.90;;;;;;5030598;28;20064;-74
2022/08/22 08:46:52;;;;;;;8.73;2.40;;;19.80;99.90;;;;;;5022755;28;21603;-73
2022/08/22 08:49:33;;;;;;;15.43;4.07;;;20.00;99.90;;;;;;5038907;28;20084;-73
2022/08/22 08:52:17;;;;;;;6.25;1.90;;;20.10;99.90;;;;;;5045979;28;20041;-74
2022/08/22 08:54:57;;;;;;;11.65;2.92;;;20.10;99.90;;;;;;5036893;28;20489;-74
2022/08/22 08:57:39;;;;;;;12.45;2.50;;;20.20;99.90;;;;;;5037405;28;20101;-75
2022/08/22 09:00:14;;;;;;;9.70;2.90;;;20.50;99.90;;;;;;5044844;28;20495;-74
2022/08/22 09:02:59;;;;;;;8.73;2.75;;;20.70;99.90;;;;;;5031268;28;20045;-74
2022/08/22 09:05:46;;;;;;;12.30;3.05;;;20.90;99.90;;;;;;5038883;28;20073;-75
2022/08/22 09:08:46;;;;;;;7.25;2.75;;;20.80;99.90;;;;;;5028590;28;20491;-78
2022/08/22 09:11:30;;;;;;;7.93;2.78;;;20.80;99.90;;;;;;5038798;28;20033;-75
2022/08/22 09:14:21;;;;;;;11.88;3.25;;;20.50;99.90;;;;;;5011366;28;20416;-75
2022/08/22 09:16:47;;;;;;;12.85;2.75;;;20.60;99.90;;;;;;5041151;28;20048;-75
2022/08/22 09:19:39;;;;;;;11.65;2.65;;;20.50;99.90;;;;;;5022815;28;20048;-75
2022/08/22 09:22:36;;;;;;;12.02;2.92;;;20.50;99.90;;;;;;5005554;28;20056;-74
2022/08/22 09:25:24;;;;;;;9.75;3.00;;;20.50;99.90;;;;;;5046604;28;20039;-74
2022/08/22 09:27:58;;;;;;;7.75;3.13;;;20.50;99.90;;;;;;5045195;28;20434;-75
2022/08/22 09:30:32;;;;;;;6.60;1.85;;;20.50;99.90;;;;;;5027578;28;20124;-74
2022/08/22 09:33:05;;;;;;;12.20;4.40;;;20.40;99.90;;;;;;5028347;28;20071;-74
2022/08/22 09:35:54;;;;;;;6.70;2.03;;;20.30;99.90;;;;;;5028837;28;20494;-74
2022/08/22 09:38:40;;;;;;;8.48;2.55;;;20.50;99.90;;;;;;5027290;28;20044;-74
2022/08/22 09:41:39;;;;;;;6.07;1.70;;;20.80;99.90;;;;;;5045211;28;20049;-74
2022/08/22 09:44:13;;;;;;;7.80;1.50;;;21.10;99.90;;;;;;5027295;28;20061;-74
2022/08/22 09:46:54;;;;;;;8.30;1.90;;;21.20;99.90;;;;;;5046802;28;20407;-74
2022/08/22 09:49:43;;;;;;;7.43;1.75;;;21.30;99.90;;;;;;5044345;28;20041;-74
2022/08/22 09:52:38;;;;;;;8.52;1.90;;;21.20;99.90;;;;;;5044918;28;20445;-74
2022/08/22 09:55:47;;;;;;;6.93;2.05;;;21.10;99.90;;;;;;5043765;28;20045;-74
2022/08/22 09:58:36;;;;;;;5.80;1.30;;;21.20;99.90;;;;;;5045801;28;20063;-75
2022/08/22 10:01:43;;;;;;;5.35;1.48;;;21.40;99.90;;;;;;5022612;28;20157;-75
2022/08/22 10:04:37;;;;;;;9.43;1.38;;;21.50;99.90;;;;;;5040001;28;20053;-75
2022/08/22 10:07:14;;;;;;;6.32;2.38;;;21.80;99.90;;;;;;5034412;28;20538;-75
2022/08/22 10:10:05;;;;;;;6.32;2.20;;;21.70;99.90;;;;;;5011203;28;20040;-74
2022/08/22 10:12:59;;;;;;;12.48;3.55;;;21.50;99.90;;;;;;5030762;28;20045;-74
2022/08/22 10:15:38;;;;;;;7.93;1.42;;;21.80;99.90;;;;;;5028354;28;20044;-74
2022/08/22 10:18:26;;;;;;;7.10;1.33;;;22.10;99.90;;;;;;5028780;28;20049;-75
2022/08/22 10:20:57;;;;;;;7.03;1.65;;;22.30;99.90;;;;;;5027490;28;20037;-76
2022/08/22 10:23:37;;;;;;;8.43;2.28;;;22.40;99.90;;;;;;5038439;28;20037;-75
2022/08/22 10:26:40;;;;;;;8.63;2.05;;;22.00;99.90;;;;;;5029010;28;20041;-75
2022/08/22 10:29:37;;;;;;;9.32;2.00;;;21.90;99.90;;;;;;5044863;28;20040;-75
2022/08/22 10:32:06;;;;;;;6.30;1.63;;;22.00;99.90;;;;;;5041394;28;20091;-76
2022/08/22 10:34:39;;;;;;;6.88;1.75;;;22.30;99.90;;;;;;5044289;28;20408;-77
2022/08/22 10:37:13;;;;;;;8.18;1.95;;;22.40;99.90;;;;;;5038207;28;20059;-77
2022/08/22 10:39:58;;;;;;;6.10;1.77;;;22.60;99.90;;;;;;5044798;28;20064;-76
2022/08/22 10:42:28;;;;;;;6.57;1.42;;;22.50;99.90;;;;;;5044611;28;20045;-75
2022/08/22 10:45:27;;;;;;;4.00;1.50;;;22.70;99.90;;;;;;5044324;28;20044;-76
2022/08/22 10:47:53;;;;;;;6.70;2.33;;;22.70;99.90;;;;;;5045908;28;20415;-76
2022/08/22 10:50:34;;;;;;;4.93;2.03;;;22.30;99.90;;;;;;5026738;28;20041;-76
2022/08/22 10:53:32;;;;;;;6.05;2.28;;;22.70;99.90;;;;;;5020477;28;20053;-76
2022/08/22 10:56:28;;;;;;;9.57;1.88;;;22.50;99.90;;;;;;5039831;28;20060;-76
2022/08/22 10:58:56;;;;;;;4.78;2.15;;;22.00;99.90;;;;;;5026011;28;20048;-77
2022/08/22 11:01:26;;;;;;;6.90;1.33;;;22.10;99.90;;;;;;5025456;28;20096;-78
2022/08/22 11:03:58;;;;;;;8.93;2.03;;;21.70;99.90;;;;;;5049130;28;20136;-76
2022/08/22 11:06:37;;;;;;;6.07;2.75;;;21.50;99.90;;;;;;5028321;28;20049;-75
2022/08/22 11:09:23;;;;;;;4.90;1.40;;;21.50;99.90;;;;;;5048676;28;20041;-73
2022/08/22 11:12:07;;;;;;;8.63;2.72;;;21.50;99.90;;;;;;5034445;28;20045;-79
2022/08/22 11:15:20;;;;;;;4.97;1.85;;;21.40;99.90;;;;;;5049809;28;20060;-78
2022/08/22 11:18:16;;;;;;;11.07;2.97;;;22.10;99.90;;;;;;5046758;28;20491;-78
2022/08/22 11:21:22;;;;;;;9.15;3.42;;;21.80;99.90;;;;;;5044648;28;20045;-77
2022/08/22 11:24:09;;;;;;;9.40;2.30;;;21.70;99.90;;;;;;5048994;28;20087;-79
2022/08/22 11:26:43;;;;;;;9.43;1.88;;;21.70;99.90;;;;;;5029400;28;20064;-77
2022/08/22 11:29:27;;;;;;;10.40;4.00;;;22.10;99.90;;;;;;5029257;28;20175;-78
2022/08/22 11:32:11;;;;;;;7.15;2.30;;;22.30;99.90;;;;;;5046337;28;20083;-80
2022/08/22 11:35:00;;;;;;;9.18;2.50;;;22.40;99.90;;;;;;5041378;28;20147;-77
2022/08/22 11:37:57;;;;;;;7.43;1.70;;;22.70;99.90;;;;;;5018664;28;20290;-78
2022/08/22 11:40:35;;;;;;;18.00;3.03;;;22.40;99.90;;;;;;5047915;28;20048;-83
2022/08/22 11:43:26;;;;;;;8.52;1.88;;;22.30;99.90;;;;;;5054768;28;20049;-83
2022/08/22 11:45:58;;;;;;;10.65;1.92;;;22.50;99.90;;;;;;5047178;28;20057;-85
2022/08/22 11:48:32;;;;;;;6.90;2.20;;;22.90;99.90;;;;;;5048322;28;20044;-81
2022/08/22 11:51:16;;;;;;;8.43;1.90;;;23.20;99.90;;;;;;5031439;28;20056;-82
2022/08/22 11:53:48;;;;;;;4.15;1.65;;;22.90;99.90;;;;;;5028491;28;20044;-84
2022/08/22 11:56:33;;;;;;;8.35;2.22;;;22.80;99.90;;;;;;5050253;28;20051;-83
2022/08/22 11:59:16;;;;;;;5.50;2.03;;;22.70;99.90;;;;;;5049160;28;20048;-83
2022/08/22 12:01:51;;;;;;;5.30;1.80;;;22.60;99.90;;;;;;5047642;28;20056;-82
2022/08/22 12:04:36;;;;;;;10.23;2.05;;;22.40;99.90;;;;;;5043976;28;20041;-84
2022/08/22 12:07:26;;;;;;;6.90;2.08;;;22.70;99.90;;;;;;5040769;28;20040;-84
2022/08/22 12:10:15;;;;;;;4.57;1.52;;;23.10;99.90;;;;;;5047713;28;20045;-84
2022/08/22 12:13:21;;;;;;;7.45;2.67;;;22.90;99.90;;;;;;5048756;28;20087;-84
2022/08/22 12:16:09;;;;;;;14.27;4.13;;;23.20;99.90;;;;;;5022651;28;20115;-83
2022/08/22 12:18:37;;;;;;;6.60;1.67;;;23.80;99.90;;;;;;5048921;28;20116;-83
2022/08/22 12:21:18;;;;;;;5.05;1.40;;;23.30;99.90;;;;;;5038352;28;20045;-84
2022/08/22 12:23:59;;;;;;;7.68;1.70;;;23.40;99.90;;;;;;5026721;28;20056;-83
2022/08/22 12:26:38;;;;;;;7.80;2.50;;;23.60;99.90;;;;;;5048852;28;20045;-87
2022/08/22 12:29:23;;;;;;;9.82;3.00;;;23.80;99.90;;;;;;5046739;28;20067;-78
2022/08/22 12:32:36;;;;;;;6.35;1.85;;;24.10;99.90;;;;;;5025452;28;20053;-82
2022/08/22 12:35:13;;;;;;;6.82;1.48;;;24.30;99.90;;;;;;5045384;28;20045;-82
2022/08/22 12:37:58;;;;;;;5.55;2.08;;;23.80;99.90;;;;;;5028254;28;20401;-83
2022/08/22 12:40:42;;;;;;;6.70;2.10;;;23.40;99.90;;;;;;5048445;28;20045;-83
2022/08/22 12:43:31;;;;;;;8.93;1.73;;;23.20;99.90;;;;;;5047579;28;20468;-83
2022/08/22 12:46:17;;;;;;;8.50;2.03;;;23.00;99.90;;;;;;5038293;28;20065;-79
2022/08/22 12:48:46;;;;;;;5.60;1.88;;;23.40;99.90;;;;;;5039764;28;20029;-80
2022/08/22 12:51:29;;;;;;;6.95;2.03;;;23.60;99.90;;;;;;5045533;28;20041;-82
2022/08/22 12:54:21;;;;;;;8.20;1.90;;;24.10;99.90;;;;;;5047797;28;20052;-80
2022/08/22 12:57:00;;;;;;;7.85;2.90;;;24.20;99.90;;;;;;5048206;28;20048;-79
2022/08/22 12:59:40;;;;;;;8.20;2.00;;;24.00;99.90;;;;;;5040942;28;20420;-80
2022/08/22 13:02:22;;;;;;;7.38;1.67;;;24.10;99.90;;;;;;5026630;28;21902;-81
2022/08/22 13:05:17;;;;;;;7.97;1.70;;;24.30;99.90;;;;;;5045599;28;20099;-84
2022/08/22 13:07:51;;;;;;;6.05;1.90;;;24.20;99.90;;;;;;5045401;28;20059;-81
2022/08/22 13:10:41;;;;;;;7.20;2.42;;;24.00;99.90;;;;;;5029885;28;20069;-80
2022/08/22 13:13:13;;;;;;;6.90;1.77;;;23.90;99.90;;;;;;5046632;28;20091;-81
2022/08/22 13:16:01;;;;;;;5.80;1.60;;;24.10;99.90;;;;;;5024215;28;20100;-83
2022/08/22 13:18:36;;;;;;;7.70;2.38;;;23.90;99.90;;;;;;5046725;28;20482;-81
2022/08/22 13:21:05;;;;;;;9.43;2.10;;;24.00;99.90;;;;;;5046224;28;20044;-80
2022/08/22 13:23:35;;;;;;;8.88;2.13;;;24.10;99.90;;;;;;5043222;28;20037;-82
2022/08/22 13:26:09;;;;;;;6.85;1.98;;;24.20;99.90;;;;;;5048386;28;20132;-81
2022/08/22 13:29:28;;;;;;;5.15;1.95;;;23.90;99.90;;;;;;5048612;28;20460;-80
2022/08/22 13:32:01;;;;;;;8.02;2.60;;;23.60;99.90;;;;;;5013522;28;20115;-80
2022/08/22 13:34:51;;;;;;;8.70;2.65;;;23.60;99.90;;;;;;5047628;28;20072;-81
2022/08/22 13:37:38;;;;;;;4.80;1.98;;;23.60;99.90;;;;;;5045454;28;20045;-80
2022/08/22 13:40:08;;;;;;;8.50;1.80;;;23.80;99.90;;;;;;5044622;28;20037;-76
2022/08/22 13:42:44;;;;;;;10.45;2.03;;;23.90;99.90;;;;;;5021240;28;20349;-80
2022/08/22 13:45:22;;;;;;;3.70;1.52;;;23.90;99.90;;;;;;5029390;28;20056;-79
2022/08/22 13:47:55;;;;;;;7.70;1.55;;;23.40;99.90;;;;;;5029953;28;20051;-78
2022/08/22 13:50:24;;;;;;;7.60;2.28;;;23.50;99.90;;;;;;5028913;28;20045;-80
2022/08/22 13:52:56;;;;;;;12.18;2.13;;;23.50;99.90;;;;;;5015110;28;20051;-79
2022/08/22 13:55:43;;;;;;;8.40;2.15;;;23.70;99.90;;;;;;5046517;28;20126;-79
2022/08/22 13:58:26;;;;;;;9.73;1.60;;;23.90;99.90;;;;;;5044401;28;20060;-78